Terminal Aerodrome Forecast
Issued by NWS

Home | Current Version | Previous Version | Text Only | Print | Product List | Glossary On
Versions: 1 2 3 4 5 6 7 8 9 10 11 12 13 14 15 16 17 18 19 20 21 22 23
000
FTUS43 KDTX 050805 AAA
TAFDET
TAF AMD
KDET 050805Z 0508/0606 21004KT P6SM FEW005 SCT030
      TEMPO 0508/0510 5SM BR BKN005
     FM051100 21004KT 6SM BR SCT025 BKN040
     FM051400 20006KT P6SM SCT040 BKN150
     FM051900 22008KT P6SM BKN040 BKN200
     FM060000 VRB04KT P6SM SCT050 BKN200=

USA.gov is the U.S. government's official web portal to all federal, state and local government web resources and services.